Time;durP1;ratioP1;P1;durP2;ratioP2;P2;SDS_P1;SDS_P2;PMS_P1;PMS_P2;Temp;Humidity;BMP_temperature;BMP_pressure;BME280_temperature;BME280_humidity;BME280_pressure;Samples;Min_cycle;Max_cycle;Signal;HPM_P1;HPM_P2
2022/07/12 00:01:47;;;;;;;3.08;2.03;;;;;;;17.65;100.00;102030.66;5050217;28;20801;-72
2022/07/12 00:04:14;;;;;;;3.15;1.98;;;;;;;17.60;100.00;102034.72;5054267;28;20048;-75
2022/07/12 00:06:42;;;;;;;5.18;2.42;;;;;;;17.57;100.00;102031.94;5052706;28;20053;-75
2022/07/12 00:09:08;;;;;;;4.75;2.00;;;;;;;17.45;100.00;102024.06;5052827;28;20772;-74
2022/07/12 00:11:36;;;;;;;4.35;2.05;;;;;;;17.48;100.00;102038.00;5049564;28;20056;-76
2022/07/12 00:14:03;;;;;;;5.20;2.38;;;;;;;17.48;100.00;102046.41;5047574;28;20147;-76
2022/07/12 00:16:30;;;;;;;4.63;1.73;;;;;;;17.46;100.00;102045.22;5054614;28;20059;-75
2022/07/12 00:18:56;;;;;;;4.45;2.08;;;;;;;17.46;100.00;102043.22;5054899;28;20045;-75
2022/07/12 00:21:23;;;;;;;5.00;2.67;;;;;;;17.42;100.00;102036.84;5046528;28;20291;-75
2022/07/12 00:23:49;;;;;;;7.03;2.30;;;;;;;17.40;100.00;102036.44;5043093;28;20150;-73
2022/07/12 00:26:16;;;;;;;6.43;2.67;;;;;;;17.36;100.00;102035.69;5050505;28;20045;-73
2022/07/12 00:28:43;;;;;;;4.70;2.30;;;;;;;17.34;100.00;102034.50;5045100;28;20052;-75
2022/07/12 00:31:09;;;;;;;4.60;2.05;;;;;;;17.27;100.00;102040.13;5041085;28;20052;-75
2022/07/12 00:33:36;;;;;;;5.55;2.10;;;;;;;17.24;100.00;102032.56;5049056;28;20053;-73
2022/07/12 00:36:03;;;;;;;5.07;2.22;;;;;;;17.21;100.00;102030.63;5049775;28;20166;-74
2022/07/12 00:38:30;;;;;;;3.92;2.20;;;;;;;17.15;100.00;102030.22;5054043;28;20051;-73
2022/07/12 00:40:56;;;;;;;7.20;2.10;;;;;;;17.10;100.00;102025.09;5052543;28;20052;-74
2022/07/12 00:43:23;;;;;;;3.13;2.10;;;;;;;17.11;100.00;102034.28;5055259;28;20195;-74
2022/07/12 00:45:49;;;;;;;4.20;2.17;;;;;;;17.08;100.00;102024.69;5060744;28;20497;-74
2022/07/12 00:48:17;;;;;;;5.85;2.10;;;;;;;17.11;100.00;102018.28;5063277;28;20044;-73
2022/07/12 00:50:47;;;;;;;4.13;2.50;;;;;;;17.05;100.00;102014.31;5060841;28;20060;-72
2022/07/12 00:53:16;;;;;;;6.90;2.30;;;;;;;17.01;100.00;102019.16;5062052;28;20505;-72
2022/07/12 00:55:43;;;;;;;8.68;2.33;;;;;;;16.98;100.00;102008.00;5061359;28;20072;-73
2022/07/12 00:58:09;;;;;;;3.20;1.92;;;;;;;16.97;100.00;102012.00;5051251;28;20140;-75
2022/07/12 01:00:36;;;;;;;5.38;2.53;;;;;;;16.96;100.00;102005.63;5067482;28;20056;-74
2022/07/12 01:03:03;;;;;;;2.75;2.00;;;;;;;16.92;100.00;102006.84;5066102;28;20078;-74
2022/07/12 01:05:30;;;;;;;3.28;2.22;;;;;;;16.91;100.00;102005.25;5067071;28;20127;-75
2022/07/12 01:07:57;;;;;;;3.13;2.03;;;;;;;16.88;100.00;102014.47;5059468;28;20500;-72
2022/07/12 01:10:24;;;;;;;10.30;2.40;;;;;;;16.87;100.00;102013.66;5060058;28;20084;-73
2022/07/12 01:12:51;;;;;;;5.28;2.33;;;;;;;16.85;100.00;102016.09;5063001;28;20071;-72
2022/07/12 01:15:20;;;;;;;3.17;2.10;;;;;;;16.83;100.00;102020.47;5058362;28;20055;-76
2022/07/12 01:17:47;;;;;;;7.43;2.40;;;;;;;16.78;100.00;102006.94;5052881;28;20052;-74
2022/07/12 01:20:20;;;;;;;3.42;1.80;;;;;;;16.75;100.00;101999.38;5064129;28;20540;-74
2022/07/12 01:22:54;;;;;;;4.32;2.30;;;;;;;16.73;100.00;102013.75;5058374;28;20045;-73
2022/07/12 01:25:22;;;;;;;;;;;;;;;16.70;100.00;102008.97;5054299;28;20132;-73
2022/07/12 01:27:48;;;;;;;3.25;2.30;;;;;;;16.67;100.00;101997.81;5057420;28;19931;-76
2022/07/12 01:30:15;;;;;;;5.13;2.25;;;;;;;16.66;100.00;102001.81;5063001;28;20072;-74
2022/07/12 01:32:42;;;;;;;3.25;2.22;;;;;;;16.60;100.00;102004.22;5058458;28;20059;-74
2022/07/12 01:35:10;;;;;;;5.38;2.40;;;;;;;16.58;100.00;102005.84;5061088;28;20052;-72
2022/07/12 01:37:38;;;;;;;6.03;2.20;;;;;;;16.55;100.00;102004.69;5061600;28;20544;-76
2022/07/12 01:40:08;;;;;;;3.72;2.30;;;;;;;16.47;100.00;102005.13;5065346;28;20145;-73
2022/07/12 01:42:35;;;;;;;8.38;2.78;;;;;;;16.47;100.00;102003.09;5061487;28;20079;-74
2022/07/12 01:45:03;;;;;;;5.05;2.35;;;;;;;16.44;100.00;102003.13;5064716;28;20058;-74
2022/07/12 01:47:31;;;;;;;4.50;2.20;;;;;;;16.40;100.00;102014.28;5059433;28;20046;-73
2022/07/12 01:49:59;;;;;;;3.95;2.47;;;;;;;16.37;100.00;102003.91;5054039;28;20052;-73
2022/07/12 01:52:26;;;;;;;8.65;2.83;;;;;;;16.34;100.00;102001.97;5056077;28;20136;-74
2022/07/12 01:54:54;;;;;;;4.60;2.60;;;;;;;16.33;100.00;102003.13;5063288;28;20044;-73
2022/07/12 01:57:21;;;;;;;4.13;2.25;;;;;;;16.31;100.00;102007.53;5063128;28;20493;-74
2022/07/12 01:59:48;;;;;;;4.78;2.30;;;;;;;16.27;100.00;102012.34;5054927;28;20055;-75
2022/07/12 02:02:14;;;;;;;8.57;3.00;;;;;;;16.21;100.00;102016.75;5058063;28;20128;-74
2022/07/12 02:04:41;;;;;;;5.20;2.45;;;;;;;16.17;100.00;102013.19;5062075;28;20045;-75
2022/07/12 02:07:08;;;;;;;4.47;2.38;;;;;;;16.20;100.00;102013.16;5063154;28;20425;-74
2022/07/12 02:09:34;;;;;;;5.10;2.80;;;;;;;16.21;100.00;102013.97;5065038;28;20131;-74
2022/07/12 02:12:01;;;;;;;5.20;2.40;;;;;;;16.17;100.00;102018.78;5062102;28;20067;-73
2022/07/12 02:14:28;;;;;;;5.35;2.38;;;;;;;16.14;100.00;102014.00;5064609;28;20048;-74
2022/07/12 02:16:54;;;;;;;6.38;2.70;;;;;;;16.11;100.00;102025.97;5063507;28;20580;-73
2022/07/12 02:19:21;;;;;;;8.52;2.80;;;;;;;16.06;100.00;102018.78;5058256;28;20080;-74
2022/07/12 02:21:47;;;;;;;4.43;2.42;;;;;;;16.06;100.00;102021.59;5061262;28;20796;-75
2022/07/12 02:24:14;;;;;;;6.72;2.80;;;;;;;16.04;100.00;102023.19;5064423;28;20165;-73
2022/07/12 02:26:41;;;;;;;6.88;2.95;;;;;;;16.05;100.00;102033.16;5056864;28;20051;-74
2022/07/12 02:29:07;;;;;;;7.95;2.83;;;;;;;16.01;100.00;102027.59;5062654;28;20048;-76
2022/07/12 02:31:34;;;;;;;6.80;2.63;;;;;;;15.99;100.00;102027.19;5063244;28;20063;-74
2022/07/12 02:34:01;;;;;;;5.45;2.40;;;;;;;15.98;100.00;102036.78;5062824;28;20124;-72
2022/07/12 02:36:27;;;;;;;4.50;2.50;;;;;;;15.95;100.00;102028.41;5063757;28;20044;-75
2022/07/12 02:38:54;;;;;;;5.30;2.53;;;;;;;15.92;100.00;102030.00;5061855;28;20076;-73
2022/07/12 02:41:21;;;;;;;9.18;3.00;;;;;;;15.94;100.00;102033.19;5063610;28;20044;-74
2022/07/12 02:43:47;;;;;;;3.85;2.40;;;;;;;15.92;100.00;102032.00;5063892;28;20718;-75
2022/07/12 02:46:14;;;;;;;7.78;3.00;;;;;;;15.92;100.00;102038.38;5059983;28;20144;-74
2022/07/12 02:48:42;;;;;;;6.82;2.45;;;;;;;15.92;100.00;102040.38;5062028;28;20056;-76
2022/07/12 02:51:09;;;;;;;5.63;2.72;;;;;;;15.93;100.00;102039.97;5058439;28;20044;-76
2022/07/12 02:53:37;;;;;;;3.80;2.47;;;;;;;15.93;100.00;102036.41;5060340;28;20505;-75
2022/07/12 02:56:09;;;;;;;6.10;2.80;;;;;;;15.90;100.00;102032.41;5056850;28;20048;-74
2022/07/12 02:58:36;;;;;;;7.22;2.83;;;;;;;15.89;100.00;102043.97;5058247;28;20053;-74
2022/07/12 03:01:03;;;;;;;4.75;2.90;;;;;;;15.81;100.00;102034.81;5059273;28;20044;-74
2022/07/12 03:03:30;;;;;;;5.03;2.60;;;;;;;15.76;100.00;102040.00;5056612;28;20101;-73
2022/07/12 03:05:57;;;;;;;6.47;2.78;;;;;;;15.73;100.00;102038.81;5062553;28;20090;-74
2022/07/12 03:08:24;;;;;;;4.70;2.80;;;;;;;15.70;100.00;102039.63;5058868;28;20190;-73
2022/07/12 03:10:51;;;;;;;9.95;2.80;;;;;;;15.71;100.00;102046.78;5058535;28;20064;-74
2022/07/12 03:13:17;;;;;;;6.28;3.03;;;;;;;15.72;100.00;102053.19;5058427;28;20052;-74
2022/07/12 03:15:45;;;;;;;7.82;2.88;;;;;;;15.73;100.00;102043.59;5065508;28;20110;-74
2022/07/12 03:18:13;;;;;;;6.18;3.20;;;;;;;15.71;100.00;102054.34;5068480;28;20132;-74
2022/07/12 03:20:40;;;;;;;5.50;2.67;;;;;;;15.70;100.00;102055.56;5066039;28;20515;-74
2022/07/12 03:23:07;;;;;;;5.10;2.85;;;;;;;15.70;100.00;102052.78;5055690;28;20064;-73
2022/07/12 03:25:34;;;;;;;5.38;2.35;;;;;;;15.66;100.00;102051.97;5062166;28;20497;-74
2022/07/12 03:28:01;;;;;;;7.40;3.10;;;;;;;15.63;100.00;102056.38;5060733;28;20044;-74
2022/07/12 03:30:27;;;;;;;6.07;2.85;;;;;;;15.60;100.00;102057.16;5062556;28;20190;-74
2022/07/12 03:32:54;;;;;;;10.32;3.58;;;;;;;15.62;100.00;102051.19;5061585;28;20139;-74
2022/07/12 03:35:22;;;;;;;5.55;3.10;;;;;;;15.63;100.00;102044.41;5066210;28;20751;-76
2022/07/12 03:37:50;;;;;;;5.32;2.95;;;;;;;15.61;100.00;102047.59;5062012;28;20052;-73
2022/07/12 03:40:18;;;;;;;6.35;3.33;;;;;;;15.61;100.00;102053.19;5062375;28;20061;-73
2022/07/12 03:42:46;;;;;;;5.47;3.22;;;;;;;15.61;100.00;102049.56;5064874;28;20595;-73
2022/07/12 03:45:14;;;;;;;4.25;2.90;;;;;;;15.57;100.00;102044.78;5063589;28;20049;-75
2022/07/12 03:47:41;;;;;;;7.53;2.97;;;;;;;15.54;100.00;102039.22;5058884;28;20052;-72
2022/07/12 03:50:12;;;;;;;7.43;3.30;;;;;;;15.49;100.00;102043.22;5058170;28;20123;-73
2022/07/12 03:52:41;;;;;;;7.43;3.25;;;;;;;15.45;100.00;102039.63;5067356;28;20135;-72
2022/07/12 03:55:09;;;;;;;6.60;3.60;;;;;;;15.48;100.00;102037.25;5059997;28;20052;-73
2022/07/12 03:57:36;;;;;;;5.85;3.60;;;;;;;15.49;100.00;102034.03;5068892;28;20074;-74
2022/07/12 04:00:11;;;;;;;5.70;3.25;;;;;;;15.52;100.00;102038.03;5059458;28;20177;-74
2022/07/12 04:02:39;;;;;;;6.93;3.50;;;;;;;15.46;100.00;102035.63;5060864;28;20049;-73
2022/07/12 04:05:07;;;;;;;7.75;3.45;;;;;;;15.48;100.00;102038.84;5065966;28;20033;-74
2022/07/12 04:07:34;;;;;;;6.38;3.75;;;;;;;15.50;100.00;102042.00;5064710;28;20051;-76
2022/07/12 04:10:01;;;;;;;7.85;3.80;;;;;;;15.53;100.00;102041.22;5066887;28;20110;-73
2022/07/12 04:12:27;;;;;;;8.38;4.00;;;;;;;15.52;100.00;102046.41;5053094;28;20053;-75
2022/07/12 04:14:54;;;;;;;12.48;4.65;;;;;;;15.57;100.00;102049.59;5063329;28;20409;-73
2022/07/12 04:17:20;;;;;;;9.13;4.15;;;;;;;15.60;100.00;102043.22;5067060;28;20043;-73
2022/07/12 04:19:47;;;;;;;7.95;4.28;;;;;;;15.63;100.00;102050.00;5067742;28;20489;-76
2022/07/12 04:22:13;;;;;;;8.80;4.10;;;;;;;15.65;100.00;102053.19;5066421;28;20155;-74
2022/07/12 04:24:40;;;;;;;8.73;3.95;;;;;;;15.65;100.00;102053.97;5062111;28;20520;-74
2022/07/12 04:27:07;;;;;;;8.52;3.80;;;;;;;15.67;100.00;102056.34;5066316;28;20055;-75
2022/07/12 04:29:33;;;;;;;7.20;3.75;;;;;;;15.66;100.00;102055.56;5054967;28;20494;-76
2022/07/12 04:32:00;;;;;;;10.95;3.65;;;;;;;15.69;100.00;102065.13;5054678;28;20120;-73
2022/07/12 04:34:26;;;;;;;6.30;3.88;;;;;;;15.71;100.00;102062.72;5063399;28;20071;-76
2022/07/12 04:36:54;;;;;;;10.20;4.40;;;;;;;15.73;100.00;102058.38;5065897;28;20060;-75
2022/07/12 04:39:21;;;;;;;8.52;3.72;;;;;;;15.77;100.00;102045.19;5065311;28;20044;-75
2022/07/12 04:41:48;;;;;;;9.93;3.88;;;;;;;15.84;100.00;102058.34;5064697;28;20048;-76
2022/07/12 04:44:14;;;;;;;5.93;3.70;;;;;;;15.89;100.00;102058.72;5056800;28;20460;-75
2022/07/12 04:46:41;;;;;;;7.90;3.70;;;;;;;15.93;100.00;102053.16;5064762;28;20047;-75
2022/07/12 04:49:08;;;;;;;8.77;4.43;;;;;;;16.02;100.00;102061.88;5053890;28;20666;-75
2022/07/12 04:51:34;;;;;;;6.55;3.80;;;;;;;16.07;100.00;102070.66;5060098;28;20058;-74
2022/07/12 04:54:01;;;;;;;9.55;3.88;;;;;;;16.13;100.00;102065.47;5064362;28;20048;-77
2022/07/12 04:56:28;;;;;;;11.00;4.93;;;;;;;16.20;100.00;102057.06;5060316;28;20048;-75
2022/07/12 04:58:54;;;;;;;14.27;5.63;;;;;;;16.28;100.00;102064.22;5057404;28;20142;-75
2022/07/12 05:01:28;;;;;;;12.43;5.93;;;;;;;16.36;100.00;102060.19;5065114;28;20566;-72
2022/07/12 05:03:55;;;;;;;11.88;5.95;;;;;;;16.49;100.00;102064.97;5064285;28;20516;-76
2022/07/12 05:06:22;;;;;;;13.68;6.45;;;;;;;16.57;100.00;102072.09;5062524;28;20144;-75
2022/07/12 05:08:49;;;;;;;10.23;5.05;;;;;;;16.67;100.00;102070.50;5064249;28;20060;-75
2022/07/12 05:11:16;;;;;;;11.23;5.38;;;;;;;16.74;100.00;102076.81;5058946;28;20056;-75
2022/07/12 05:13:42;;;;;;;12.70;5.50;;;;;;;16.81;100.00;102071.19;5055765;28;20072;-75
2022/07/12 05:16:09;;;;;;;12.40;6.10;;;;;;;16.89;100.00;102072.75;5063718;28;20151;-76
2022/07/12 05:18:35;;;;;;;14.23;7.45;;;;;;;17.01;100.00;102075.06;5062055;28;21631;-74
2022/07/12 05:21:03;;;;;;;15.07;7.22;;;;;;;17.09;100.00;102070.25;5060404;28;20457;-77
2022/07/12 05:23:30;;;;;;;15.20;8.23;;;;;;;17.17;100.00;102067.00;5063644;28;20127;-74
2022/07/12 05:25:56;;;;;;;14.88;8.48;;;;;;;17.26;100.00;102069.31;5066445;28;20053;-77
2022/07/12 05:28:23;;;;;;;16.15;8.88;;;;;;;17.36;100.00;102062.84;5067744;28;20452;-74
2022/07/12 05:30:49;;;;;;;16.48;8.50;;;;;;;17.46;100.00;102064.81;5065772;28;20084;-75
2022/07/12 05:33:16;;;;;;;19.35;10.00;;;;;;;17.55;100.00;102062.34;5064439;28;20461;-74
2022/07/12 05:35:42;;;;;;;17.92;10.00;;;;;;;17.67;100.00;102061.81;5067226;28;20475;-73
2022/07/12 05:38:09;;;;;;;17.67;10.30;;;;;;;17.74;100.00;102062.56;5065684;28;20051;-73
2022/07/12 05:40:36;;;;;;;18.33;11.05;;;;;;;17.87;100.00;102072.03;5065706;28;20144;-77
2022/07/12 05:43:02;;;;;;;16.95;10.35;;;;;;;17.98;100.00;102076.75;5066031;28;20075;-73
2022/07/12 05:45:29;;;;;;;18.92;11.07;;;;;;;18.04;100.00;102070.28;5066785;28;20044;-73
2022/07/12 05:47:55;;;;;;;18.40;11.73;;;;;;;18.14;100.00;102074.97;5062273;28;20695;-76
2022/07/12 05:50:22;;;;;;;19.38;11.95;;;;;;;18.21;100.00;102069.28;5066706;28;20491;-75
2022/07/12 05:55:34;;;;;;;18.02;12.02;;;;;;;18.42;100.00;102060.66;5065790;28;20132;-76
2022/07/12 05:58:02;;;;;;;19.35;11.70;;;;;;;18.52;100.00;102062.53;5061204;28;20096;-76
2022/07/12 06:00:29;;;;;;;20.15;13.57;;;;;;;18.59;100.00;102062.44;5056913;28;20076;-74
2022/07/12 06:02:55;;;;;;;21.05;13.85;;;;;;;18.69;100.00;102060.75;5058247;28;20523;-73
2022/07/12 06:05:22;;;;;;;20.75;13.13;;;;;;;18.77;100.00;102074.25;5058761;28;20051;-75
2022/07/12 06:07:49;;;;;;;24.75;12.57;;;;;;;18.85;100.00;102070.13;5055748;28;20052;-71
2022/07/12 06:10:16;;;;;;;20.58;12.88;;;;;;;18.97;100.00;102080.75;5062386;28;20052;-74
2022/07/12 06:12:42;;;;;;;19.52;12.10;;;;;;;19.06;100.00;102086.63;5055928;28;20191;-74
2022/07/12 06:15:10;;;;;;;18.20;11.90;;;;;;;19.14;100.00;102081.72;5066055;28;20141;-72
2022/07/12 06:17:36;;;;;;;17.77;10.98;;;;;;;19.25;100.00;102087.97;5062637;28;20156;-72
2022/07/12 06:20:03;;;;;;;17.15;11.13;;;;;;;19.35;100.00;102087.84;5055413;28;20040;-73
2022/07/12 06:22:30;;;;;;;20.52;12.32;;;;;;;19.50;100.00;102088.41;5055080;28;20080;-71
2022/07/12 06:24:56;;;;;;;18.40;11.45;;;;;;;19.57;100.00;102094.69;5060148;28;20072;-71
2022/07/12 06:27:23;;;;;;;18.45;10.20;;;;;;;19.65;100.00;102096.16;5055081;28;20136;-70
2022/07/12 06:29:51;;;;;;;19.88;11.63;;;;;;;19.71;100.00;102094.47;5054335;28;20071;-70
2022/07/12 06:32:18;;;;;;;16.95;10.43;;;;;;;19.80;100.00;102108.75;5060044;28;20758;-71
2022/07/12 06:34:44;;;;;;;17.08;9.82;;;;;;;19.90;100.00;102116.22;5054764;28;20505;-70
2022/07/12 06:37:12;;;;;;;17.83;9.50;;;;;;;19.96;100.00;102116.50;5057069;28;20106;-73
2022/07/12 06:39:40;;;;;;;15.45;9.15;;;;;;;20.08;100.00;102124.34;5057086;28;20048;-72
2022/07/12 06:42:07;;;;;;;16.45;9.30;;;;;;;20.20;100.00;102134.97;5059475;28;20511;-69
2022/07/12 06:44:34;;;;;;;19.00;9.23;;;;;;;20.29;100.00;102127.56;5054286;28;20425;-75
2022/07/12 06:47:02;;;;;;;16.65;9.32;;;;;;;20.36;100.00;102132.25;5057998;28;20045;-73
2022/07/12 06:49:28;;;;;;;18.52;9.70;;;;;;;20.39;100.00;102146.25;5049240;28;20052;-72
2022/07/12 06:51:55;;;;;;;15.88;9.10;;;;;;;20.44;100.00;102144.94;5059239;28;20046;-74
2022/07/12 06:54:22;;;;;;;14.27;8.95;;;;;;;20.50;100.00;102140.41;5057861;28;20049;-73
2022/07/12 06:56:48;;;;;;;17.75;9.10;;;;;;;20.65;100.00;102143.75;5055217;28;20827;-75
2022/07/12 06:59:15;;;;;;;16.15;8.30;;;;;;;20.74;100.00;102141.13;5059010;28;20049;-73
2022/07/12 07:01:45;;;;;;;15.00;8.50;;;;;;;20.83;100.00;102132.91;5060054;28;20116;-75
2022/07/12 07:04:12;;;;;;;10.75;6.57;;;;;;;20.90;100.00;102124.34;5055242;28;20068;-75
2022/07/12 07:06:39;;;;;;;10.30;5.60;;;;;;;21.00;100.00;102124.16;5055418;28;20049;-74
2022/07/12 07:09:07;;;;;;;12.38;6.63;;;;;;;21.05;100.00;102134.88;5059672;28;20057;-69
2022/07/12 07:11:35;;;;;;;11.25;5.90;;;;;;;21.08;100.00;102127.56;5058007;28;20055;-72
2022/07/12 07:14:03;;;;;;;10.60;5.55;;;;;;;21.07;100.00;102132.44;5062071;28;20078;-71
2022/07/12 07:16:29;;;;;;;10.48;5.97;;;;;;;21.16;100.00;102129.78;5062141;28;20067;-72
2022/07/12 07:18:56;;;;;;;9.98;5.35;;;;;;;21.19;100.00;102126.09;5057680;28;20048;-71
2022/07/12 07:21:24;;;;;;;9.77;5.00;;;;;;;21.30;100.00;102128.69;5056334;28;20113;-73
2022/07/12 07:23:54;;;;;;;12.38;5.93;;;;;;;21.35;100.00;102133.78;5057998;28;20070;-74
2022/07/12 07:26:22;;;;;;;14.43;6.40;;;;;;;21.44;100.00;102122.72;5058553;28;20067;-74
2022/07/12 07:31:35;;;;;;;14.00;6.07;;;;;;;21.70;100.00;102128.09;5057965;28;20052;-74
2022/07/12 07:34:02;;;;;;;11.27;6.55;;;;;;;21.78;100.00;102125.94;5063999;28;20045;-73
2022/07/12 07:36:30;;;;;;;11.52;6.22;;;;;;;21.90;100.00;102134.47;5060375;28;20055;-74
2022/07/12 07:38:58;;;;;;;8.75;5.20;;;;;;;22.04;100.00;102133.34;5064897;28;20632;-74
2022/07/12 07:41:25;;;;;;;10.90;5.80;;;;;;;22.24;100.00;102126.31;5058711;28;20048;-73
2022/07/12 07:43:51;;;;;;;9.45;5.45;;;;;;;22.32;100.00;102133.38;5064507;28;20874;-73
2022/07/12 07:46:18;;;;;;;8.45;4.85;;;;;;;22.42;100.00;102128.66;5064781;28;20053;-73
2022/07/12 07:48:45;;;;;;;9.52;5.15;;;;;;;22.50;100.00;102125.22;5064034;28;20048;-75
2022/07/12 07:51:11;;;;;;;9.55;5.50;;;;;;;22.58;100.00;102129.41;5055906;28;20070;-73
2022/07/12 07:53:38;;;;;;;7.07;3.85;;;;;;;22.40;100.00;102131.13;5067443;28;20742;-71
2022/07/12 07:56:05;;;;;;;9.73;4.43;;;;;;;22.50;100.00;102135.72;5054684;28;20515;-70
2022/07/12 07:58:31;;;;;;;6.78;4.20;;;;;;;22.56;100.00;102131.13;5053769;28;20044;-72
2022/07/12 08:00:58;;;;;;;7.90;4.07;;;;;;;22.57;100.00;102132.69;5055521;28;20041;-73
2022/07/12 08:03:25;;;;;;;9.32;4.45;;;;;;;22.72;100.00;102133.88;5060684;28;20076;-70
2022/07/12 08:05:51;;;;;;;6.68;4.28;;;;;;;22.66;100.00;102130.81;5068948;28;20044;-71
2022/07/12 08:08:18;;;;;;;6.22;3.85;;;;;;;22.74;100.00;102129.38;5068539;28;20055;-71
2022/07/12 08:10:45;;;;;;;5.85;3.50;;;;;;;22.78;100.00;102130.06;5068206;28;20144;-69
2022/07/12 08:13:12;;;;;;;7.45;3.78;;;;;;;23.01;100.00;102136.66;5055621;28;20053;-72
2022/07/12 08:15:38;;;;;;;6.47;3.50;;;;;;;22.87;98.05;102135.03;5056012;28;20162;-70
2022/07/12 08:18:05;;;;;;;6.95;3.15;;;;;;;23.00;100.00;102137.88;5049233;28;20223;-74
2022/07/12 08:20:33;;;;;;;6.35;3.08;;;;;;;22.91;98.18;102135.72;5050715;28;20063;-74
2022/07/12 08:23:12;;;;;;;7.32;3.63;;;;;;;23.00;95.58;102123.78;5057055;28;20106;-74
2022/07/12 08:25:39;;;;;;;5.07;2.88;;;;;;;23.02;93.70;102127.75;5053837;28;20106;-72
2022/07/12 08:28:06;;;;;;;6.57;2.72;;;;;;;23.19;96.35;102117.94;5053114;28;20048;-75
2022/07/12 08:30:33;;;;;;;3.95;2.40;;;;;;;23.29;96.51;102116.06;5052560;28;20049;-74
2022/07/12 08:33:00;;;;;;;7.30;2.92;;;;;;;23.13;92.96;102128.22;5050200;28;20052;-73
2022/07/12 08:35:27;;;;;;;5.07;2.75;;;;;;;23.26;93.97;102125.41;5057291;28;20085;-71
2022/07/12 08:37:53;;;;;;;6.50;2.95;;;;;;;23.40;94.71;102120.13;5058936;28;20072;-74
2022/07/12 08:40:21;;;;;;;7.85;3.20;;;;;;;23.55;95.05;102111.97;5067961;28;20053;-73
2022/07/12 08:42:48;;;;;;;4.78;1.98;;;;;;;23.47;91.36;102122.72;5063489;28;20052;-75
2022/07/12 08:45:15;;;;;;;5.50;2.40;;;;;;;23.40;90.78;102120.13;5063604;28;20048;-74
2022/07/12 08:47:42;;;;;;;5.97;2.80;;;;;;;23.48;91.17;102115.81;5068728;28;20395;-75
2022/07/12 08:50:19;;;;;;;6.85;3.10;;;;;;;23.63;90.46;102119.78;5067739;28;20049;-76
2022/07/12 08:52:48;;;;;;;4.50;3.28;;;;;;;23.78;90.53;102120.06;5072591;28;20040;-74
2022/07/12 08:55:20;;;;;;;7.28;3.13;;;;;;;23.93;90.13;102124.81;5055225;28;20044;-74
2022/07/12 08:57:49;;;;;;;5.10;2.42;;;;;;;24.01;88.45;102114.06;5046159;28;20274;-77
2022/07/12 09:00:16;;;;;;;5.05;1.98;;;;;;;24.09;85.87;102121.03;5045068;28;20044;-77
2022/07/12 09:02:51;;;;;;;3.90;2.13;;;;;;;24.26;86.50;102123.25;5053559;28;20063;-75
2022/07/12 09:05:20;;;;;;;3.97;1.80;;;;;;;24.42;84.37;102119.44;5054194;28;20714;-78
2022/07/12 09:07:48;;;;;;;4.07;1.73;;;;;;;24.47;80.80;102111.16;5053177;28;20048;-77
2022/07/12 09:10:17;;;;;;;3.13;1.42;;;;;;;24.66;82.54;102123.44;5048629;28;20778;-77
2022/07/12 09:12:44;;;;;;;2.28;1.48;;;;;;;24.81;79.70;102128.09;5046421;28;20106;-75
2022/07/12 09:15:21;;;;;;;2.88;1.33;;;;;;;24.97;78.83;102122.22;5051489;28;20060;-76
2022/07/12 09:18:03;;;;;;;4.13;1.45;;;;;;;25.15;75.46;102122.31;5050833;28;20049;-78
2022/07/12 09:20:35;;;;;;;2.33;1.08;;;;;;;25.33;75.14;102113.16;5044215;28;20048;-77
2022/07/12 09:23:08;;;;;;;2.85;1.30;;;;;;;25.41;72.77;102111.59;5051476;28;20369;-78
2022/07/12 09:25:35;;;;;;;3.60;1.17;;;;;;;25.49;73.13;102115.75;5048236;28;20165;-75
2022/07/12 09:28:07;;;;;;;2.15;1.20;;;;;;;25.46;64.14;102127.22;5043738;28;20084;-78
2022/07/12 09:30:37;;;;;;;3.45;1.15;;;;;;;25.22;63.11;102132.59;5052245;28;20111;-77
2022/07/12 09:36:06;;;;;;;4.53;1.33;;;;;;;25.23;61.23;102117.19;5051294;28;20457;-76
2022/07/12 09:38:49;;;;;;;7.30;2.95;;;;;;;25.19;60.50;102119.38;5048477;28;20143;-78
2022/07/12 09:41:18;;;;;;;3.67;1.10;;;;;;;25.37;63.41;102115.88;5051336;28;20588;-76
2022/07/12 09:43:45;;;;;;;3.85;0.93;;;;;;;25.58;63.97;102112.16;5045155;28;20166;-76
2022/07/12 09:46:14;;;;;;;4.90;2.50;;;;;;;25.71;61.39;102115.66;5050217;28;20050;-76
2022/07/12 09:48:41;;;;;;;1.85;0.90;;;;;;;25.86;62.04;102119.47;5052524;28;20056;-75
2022/07/12 09:51:16;;;;;;;5.55;2.33;;;;;;;25.95;59.07;102123.09;5048077;28;20056;-75
2022/07/12 09:53:48;;;;;;;5.05;1.45;;;;;;;26.15;61.38;102114.97;5048221;28;20059;-78
2022/07/12 09:56:17;;;;;;;6.75;2.03;;;;;;;26.20;59.48;102108.69;5050021;28;20054;-79
2022/07/12 09:58:57;;;;;;;2.15;1.00;;;;;;;26.30;57.32;102112.28;5046396;28;20084;-76
2022/07/12 10:01:25;;;;;;;1.35;1.13;;;;;;;26.38;57.57;102107.88;5050388;28;20048;-77
2022/07/12 10:03:53;;;;;;;3.47;1.27;;;;;;;26.42;57.66;102106.47;5049478;28;20064;-76
2022/07/12 10:06:28;;;;;;;2.83;1.20;;;;;;;26.52;54.54;102110.88;5049439;28;20049;-80
2022/07/12 10:09:01;;;;;;;3.78;1.30;;;;;;;26.68;56.60;102104.88;5062456;28;20048;-77
2022/07/12 10:11:28;;;;;;;5.40;1.40;;;;;;;26.68;54.50;102106.94;5047276;28;20760;-78
2022/07/12 10:14:16;;;;;;;4.88;1.48;;;;;;;27.02;54.74;102103.69;5049601;28;20059;-80
2022/07/12 10:16:45;;;;;;;1.92;1.30;;;;;;;27.15;51.92;102098.59;5048589;28;20053;-78
2022/07/12 10:19:32;;;;;;;2.13;1.10;;;;;;;27.17;50.96;102113.13;5048750;28;20055;-76
2022/07/12 10:22:00;;;;;;;3.40;1.25;;;;;;;27.38;53.48;102109.28;5052878;28;20159;-76
2022/07/12 10:24:54;;;;;;;2.53;1.00;;;;;;;27.46;50.71;102107.66;5043999;28;20155;-77
2022/07/12 10:27:23;;;;;;;5.32;0.98;;;;;;;27.66;52.13;102092.84;5046698;28;20044;-76
2022/07/12 10:29:52;;;;;;;2.03;1.20;;;;;;;27.66;51.78;102092.84;5041068;28;20151;-78
2022/07/12 10:32:35;;;;;;;8.02;1.40;;;;;;;27.73;51.16;102098.97;5042516;28;20098;-79
2022/07/12 10:35:11;;;;;;;5.20;1.45;;;;;;;27.53;48.64;102095.16;5045247;28;20775;-79
2022/07/12 10:37:37;;;;;;;2.95;1.55;;;;;;;27.79;50.16;102091.34;5048123;28;20351;-77
2022/07/12 10:40:10;;;;;;;4.20;1.67;;;;;;;27.99;50.23;102087.91;5048763;28;20052;-75
2022/07/12 10:42:37;;;;;;;5.78;1.67;;;;;;;28.21;50.73;102083.47;5044542;28;20061;-75
2022/07/12 10:45:14;;;;;;;7.20;1.50;;;;;;;28.00;48.01;102089.53;5052786;28;20063;-76
2022/07/12 10:47:55;;;;;;;5.45;2.67;;;;;;;27.87;48.17;102089.75;5048191;28;20758;-77
2022/07/12 10:50:48;;;;;;;4.93;2.03;;;;;;;28.02;49.50;102086.97;5042945;28;20048;-76
2022/07/12 10:53:18;;;;;;;5.50;2.70;;;;;;;28.26;49.83;102085.66;5044715;28;20049;-76
2022/07/12 10:56:03;;;;;;;10.77;3.25;;;;;;;28.49;48.05;102079.16;5064014;28;20056;-78
2022/07/12 10:58:32;;;;;;;4.88;2.45;;;;;;;28.44;47.14;102091.22;5048247;28;20053;-75
2022/07/12 11:01:08;;;;;;;3.15;1.80;;;;;;;28.29;47.59;102079.00;5053980;28;20064;-75
2022/07/12 11:03:53;;;;;;;3.58;1.25;;;;;;;27.90;47.12;102080.25;5067877;28;20049;-76
2022/07/12 11:06:24;;;;;;;5.38;1.92;;;;;;;27.96;47.63;102080.34;5051311;28;20454;-77
2022/07/12 11:08:55;;;;;;;3.90;1.88;;;;;;;27.99;46.18;102076.53;5053082;28;20056;-75
2022/07/12 11:11:24;;;;;;;7.05;2.33;;;;;;;28.47;48.31;102075.19;5054542;28;20048;-73
2022/07/12 11:13:52;;;;;;;5.97;2.35;;;;;;;28.68;47.02;102074.81;5053466;28;20135;-73
2022/07/12 11:16:19;;;;;;;5.78;2.30;;;;;;;28.67;47.57;102072.47;5045242;28;20920;-74
2022/07/12 11:18:45;;;;;;;4.63;1.95;;;;;;;28.78;44.65;102069.84;5050534;28;20702;-76
2022/07/12 11:21:12;;;;;;;4.38;2.05;;;;;;;28.88;44.83;102063.53;5051665;28;20052;-73
2022/07/12 11:23:42;;;;;;;5.90;2.38;;;;;;;28.84;45.95;102065.00;5050432;28;20765;-75
2022/07/12 11:26:11;;;;;;;6.20;2.33;;;;;;;28.98;45.79;102055.66;5048153;28;20063;-75
2022/07/12 11:28:38;;;;;;;4.78;2.20;;;;;;;29.19;45.52;102055.25;5046316;28;20074;-76
2022/07/12 11:31:11;;;;;;;4.60;1.90;;;;;;;29.43;44.29;102055.13;5044726;28;20855;-73